TimePDT,TemperatureF,Dew PointF,Humidity,Sea Level PressureIn,VisibilityMPH,Wind Direction,Wind SpeedMPH,Gust SpeedMPH,PrecipitationIn,Events,Conditions,WindDirDegrees,DateUTC
12:53 AM,55.0,35.1,47,30.09,10.0,Calm,Calm,-,N/A,,Clear,0,2012-10-05 07:53:00
1:53 AM,53.1,37.9,57,30.08,10.0,South,3.5,-,N/A,,Clear,190,2012-10-05 08:53:00
2:53 AM,50.0,33.1,52,30.08,10.0,Calm,Calm,-,N/A,,Clear,0,2012-10-05 09:53:00
3:53 AM,48.9,32.0,52,30.08,10.0,Calm,Calm,-,N/A,,Clear,0,2012-10-05 10:53:00
4:53 AM,46.9,35.1,63,30.08,10.0,Calm,Calm,-,N/A,,Clear,0,2012-10-05 11:53:00
5:53 AM,46.9,36.0,66,30.08,10.0,Calm,Calm,-,N/A,,Clear,0,2012-10-05 12:53:00
6:53 AM,46.0,36.0,68,30.09,10.0,Calm,Calm,-,N/A,,Clear,0,2012-10-05 13:53:00
7:53 AM,44.1,34.0,68,30.11,10.0,Calm,Calm,-,N/A,,Clear,0,2012-10-05 14:53:00
8:53 AM,48.9,35.1,59,30.11,10.0,Calm,Calm,-,N/A,,Clear,0,2012-10-05 15:53:00
9:53 AM,54.0,34.0,47,30.10,10.0,Calm,Calm,-,N/A,,Clear,0,2012-10-05 16:53:00
10:53 AM,57.9,32.0,37,30.09,10.0,SE,3.5,-,N/A,,Clear,140,2012-10-05 17:53:00
11:53 AM,64.9,30.9,28,30.07,10.0,Calm,Calm,-,N/A,,Clear,0,2012-10-05 18:53:00
12:53 PM,70.0,30.9,24,30.05,10.0,Calm,Calm,-,N/A,,Clear,0,2012-10-05 19:53:00
1:53 PM,73.0,30.0,20,30.02,10.0,Calm,Calm,-,N/A,,Clear,0,2012-10-05 20:53:00
2:53 PM,78.1,30.9,18,30.00,10.0,North,4.6,-,N/A,,Clear,350,2012-10-05 21:53:00
3:53 PM,79.0,30.9,17,29.98,10.0,WNW,3.5,-,N/A,,Clear,300,2012-10-05 22:53:00
4:53 PM,79.0,34.0,20,29.97,10.0,WNW,6.9,-,N/A,,Clear,290,2012-10-05 23:53:00
5:53 PM,77.0,36.0,23,29.96,10.0,WNW,8.1,-,N/A,,Clear,300,2012-10-06 00:53:00
6:53 PM,72.0,37.9,29,29.98,10.0,NW,4.6,-,N/A,,Clear,310,2012-10-06 01:53:00
7:53 PM,69.1,39.0,33,30.00,10.0,NW,4.6,-,N/A,,Clear,310,2012-10-06 02:53:00
8:53 PM,66.0,44.1,45,30.02,10.0,NW,5.8,-,N/A,,Clear,310,2012-10-06 03:53:00
9:53 PM,64.0,44.1,48,30.04,10.0,NW,6.9,-,N/A,,Clear,310,2012-10-06 04:53:00
10:53 PM,62.1,45.0,53,30.06,10.0,West,4.6,-,N/A,,Clear,280,2012-10-06 05:53:00
11:53 PM,59.0,44.1,58,30.08,10.0,Calm,Calm,-,N/A,,Clear,0,2012-10-06 06:53:00